• Join FlightAware (Why Join?)
  • Login
  • US Flag 
06:21PM EDT


 

Airport Tracker/Info


-or-


 

Live Flight TrackerFlight Track Log ✈ KAP46 ✈ 08-Aug-2013 ✈ KMSS - KALB

Flight Track Log - Related Links

Times and Time Zones

All times are in EDT time to prevent confusion due to time zone crossing. See the KAP46 flight status page for this flight to view local times or setup timezone preferences in your user account.

Time Position Orientation Groundspeed Altitude Reporting Facility
EDT Latitude Longitude Course Direction KTS MPH feet Rate Location/Type
05:20PM 44.7075 -74.7272 161° South 150 173 5,200  Level Boston Center
05:21PM 44.6767 -74.7056 153° Southeast 138 159 5,800 600 Climbing Boston Center
05:22PM 44.6478 -74.6928 163° South 123 142 6,400 540 Climbing Boston Center
05:23PM 44.6189 -74.6800 163° South 123 142 6,900 300 Climbing Boston Center
05:24PM 44.5733 -74.6578 161° South 135 155 7,100  Climbing Boston Center
05:25PM 44.5300 -74.6358 160° South 153 176 7,000  Descending Boston Center
05:26PM 44.7907 -74.7731 161° South  Level Estimated
05:26PM 44.4889 -74.6108 157° South 165 190 7,100  Level Boston Center
05:27PM 44.4453 -74.5947 165° South 165 190 7,000 -60 Descending Boston Center
05:28PM 44.4144 -74.5792 160° South 165 190 7,000  Level Boston Center
05:29PM 44.3647 -74.5569 162° South 159 183 7,000  Level Boston Center
05:30PM 44.3214 -74.5322 158° South 159 183 7,100  Climbing Boston Center
05:31PM 44.2800 -74.5164 165° South 164 189 7,000 -60 Descending Boston Center
05:32PM 44.2389 -74.4975 162° South 164 189 7,000  Level Boston Center
05:33PM 44.1975 -74.4758 159° South 164 189 7,100  Climbing Boston Center
05:34PM 44.1542 -74.4569 163° South 164 189 7,100 -60 Level Boston Center
05:35PM 44.1128 -74.4353 159° South 164 189 7,000 -60 Descending Boston Center
05:36PM 44.0694 -74.4164 163° South 164 189 7,000  Level Boston Center
05:37PM 44.0281 -74.3978 162° South 164 189 7,000  Level Boston Center
05:38PM 43.9847 -74.3733 158° South 164 189 7,000  Level Boston Center
05:39PM 43.9433 -74.3547 162° South 164 189 7,000  Level Boston Center
05:40PM 43.8997 -74.3331 160° South 164 189 7,000  Level Boston Center
05:41PM 43.8606 -74.3175 164° South 164 189 7,000  Level Boston Center
05:42PM 43.8169 -74.2961 161° South 164 189 7,000  Level Boston Center
05:43PM 43.7758 -74.2775 162° South 164 189 7,100  Climbing Boston Center
05:44PM 43.7344 -74.2561 160° South 164 189 7,100 -60 Level Boston Center
05:45PM 43.6889 -74.2347 161° South 164 189 7,000 -60 Descending Boston Center
05:46PM 43.6453 -74.2161 163° South 164 189 7,000  Level Boston Center
05:47PM 43.6039 -74.1978 162° South 164 189 7,100  Climbing Boston Center
05:48PM 43.5625 -74.1764 159° South 164 189 7,000 -60 Descending Boston Center
05:49PM 43.5214 -74.1553 160° South 164 189 7,000  Level Boston Center
05:50PM 43.4797 -74.1397 165° South 164 189 7,000  Level Boston Center
05:51PM 43.4322 -74.1211 164° South 159 183 7,100  Climbing Boston Center
05:52PM 43.3886 -74.0972 158° South 164 189 7,100 -60 Level Boston Center
05:53PM 43.3453 -74.0761 160° South 164 189 7,000 -60 Descending Boston Center
05:54PM 43.3039 -74.0578 162° South 164 189 7,000 -180 Level Boston Center
05:55PM 43.2689 -74.0339 154° Southeast 165 190 6,700 -540 Descending Boston Center
05:56PM 43.2211 -74.0042 156° South 187 215 6,000 -660 Descending Boston Center
05:57PM 43.1819 -73.9778 154° Southeast 186 214 5,600 -720 Descending Boston Center
05:58PM 43.1367 -73.9425 150° Southeast 190 219 4,700 -840 Descending Boston Center
05:59PM 43.0956 -73.8958 140° Southeast 190 219 4,000 -660 Descending Boston Center
06:00PM 43.0586 -73.8553 141° Southeast 176 203 3,400 -660 Descending Boston Center
06:01PM 43.0194 -73.8203 147° Southeast 167 192 2,700 -660 Descending Boston Center
06:02PM 42.9714 -73.8192 179° South 174 200 2,100 -360 Descending Boston Center
06:03PM 42.9236 -73.8153 177° South 151 174 2,000  Descending Boston Center
06:04PM 42.8861 -73.8117 176° South 130 150 2,100  Climbing Boston Center
06:05PM 42.8528 -73.8108 179° South 114 131 2,000 -300 Descending Boston Center
06:06PM 42.8278 -73.8103 179° South 88 101 1,600 -480 Descending Boston Center
06:07PM 42.7986 -73.8097 179° South 98 113 1,100 -540 Descending Boston Center
06:08PM 42.7694 -73.8089 179° South 108 124 600  Descending Boston Center
06:10PM 42.7491 -73.8020 170° South  Level Estimated
06:17PM 42.7491 -73.8020 170° South  Level Estimated
06:18PM 42.7491 -73.8020 170° South  Level Estimated
06:19PM 42.7491 -73.8020 170° South  Level Estimated
06:32PM 42.7044 -73.8303 203° Southwest 110 127 1,700  Level Boston Center
06:33PM 42.6936 -73.8694 249° West 113 130 2,500 780 Climbing Boston Center
06:34PM 42.6950 -73.9147 272° West 121 139 3,300 720 Climbing Boston Center
06:35PM 42.7092 -73.9489 299° West 118 136 4,000 600 Climbing Boston Center
06:36PM 42.7403 -73.9694 334° Northwest 133 153 4,500 420 Climbing Boston Center
06:37PM 42.7733 -73.9844 342° North 134 154 4,900 540 Climbing Boston Center
06:38PM 42.8169 -74.0025 343° North 142 163 5,600 600 Climbing Boston Center
06:39PM 42.8542 -74.0206 340° North 144 166 6,200 480 Climbing Boston Center
06:40PM 42.8875 -74.0242 355° North 147 169 6,600 600 Climbing Boston Center
06:41PM 42.9267 -74.0450 339° North 135 155 7,400 660 Climbing Boston Center
06:42PM 42.9600 -74.0600 342° North 133 153 8,000 600 Climbing Boston Center